Time;durP1;ratioP1;P1;durP2;ratioP2;P2;SDS_P1;SDS_P2;PMS_P1;PMS_P2;Temp;Humidity;BMP_temperature;BMP_pressure;BME280_temperature;BME280_humidity;BME280_pressure;Samples;Min_cycle;Max_cycle;Signal;HPM_P1;HPM_P2
2024/03/07 00:02:06;;;;;;;21.35;17.35;;;8.30;99.90;;;;;;4920011;29;20268;-74
2024/03/07 00:04:32;;;;;;;25.27;17.55;;;8.30;99.90;;;;;;4919921;29;20213;-74
2024/03/07 00:06:57;;;;;;;21.93;15.27;;;8.30;99.90;;;;;;4920550;29;20177;-74
2024/03/07 00:09:24;;;;;;;19.60;16.37;;;8.30;99.90;;;;;;4919735;29;20692;-75
2024/03/07 00:11:50;;;;;;;27.60;17.48;;;8.30;99.90;;;;;;4920447;29;20216;-74
2024/03/07 00:14:16;;;;;;;24.15;15.75;;;8.30;99.90;;;;;;4920026;29;20201;-74
2024/03/07 00:16:42;;;;;;;24.80;17.20;;;8.20;99.90;;;;;;4917713;29;20656;-74
2024/03/07 00:19:07;;;;;;;26.23;17.27;;;8.20;99.90;;;;;;4913605;29;20260;-74
2024/03/07 00:21:33;;;;;;;24.10;17.90;;;8.20;99.90;;;;;;4908492;29;20600;-74
2024/03/07 00:24:00;;;;;;;21.83;17.47;;;8.20;99.90;;;;;;4924290;29;20225;-74
2024/03/07 00:26:26;;;;;;;26.23;18.00;;;8.20;99.90;;;;;;4916121;29;20233;-74
2024/03/07 00:28:52;;;;;;;23.50;17.43;;;8.20;99.90;;;;;;4915319;29;20648;-74
2024/03/07 00:31:18;;;;;;;25.07;18.20;;;8.10;99.90;;;;;;4925293;29;20318;-74
2024/03/07 00:33:44;;;;;;;22.53;16.83;;;8.10;99.90;;;;;;4922688;29;20704;-74
2024/03/07 00:36:10;;;;;;;23.40;17.65;;;8.10;99.90;;;;;;4922032;29;20189;-74
2024/03/07 00:38:35;;;;;;;24.80;16.43;;;8.10;99.90;;;;;;4940776;29;20272;-74
2024/03/07 00:41:01;;;;;;;24.27;16.30;;;8.00;99.90;;;;;;4916755;29;20181;-74
2024/03/07 00:43:26;;;;;;;22.23;18.60;;;8.00;99.90;;;;;;4915543;29;20917;-74
2024/03/07 00:45:52;;;;;;;27.17;18.00;;;8.00;99.90;;;;;;4920517;29;20189;-74
2024/03/07 00:48:18;;;;;;;22.47;16.97;;;8.00;99.90;;;;;;4935723;29;20189;-74
2024/03/07 00:50:44;;;;;;;24.87;16.87;;;8.00;99.90;;;;;;4917516;29;20200;-74
2024/03/07 00:53:10;;;;;;;23.93;16.20;;;8.00;99.90;;;;;;4930065;29;20697;-74
2024/03/07 00:55:35;;;;;;;23.60;17.88;;;7.90;99.90;;;;;;4933191;29;20552;-74
2024/03/07 00:58:02;;;;;;;22.23;16.47;;;7.90;99.90;;;;;;4914857;29;20190;-74
2024/03/07 01:00:28;;;;;;;23.95;16.73;;;7.90;99.90;;;;;;4918413;29;20205;-74
2024/03/07 01:02:54;;;;;;;22.77;16.10;;;7.90;99.90;;;;;;4914607;29;20204;-74
2024/03/07 01:05:20;;;;;;;24.13;17.50;;;7.90;99.90;;;;;;4883884;29;20178;-74
2024/03/07 01:07:47;;;;;;;23.90;16.63;;;7.90;99.90;;;;;;4898982;29;20297;-74
2024/03/07 01:10:15;;;;;;;20.33;15.55;;;7.80;99.90;;;;;;4914936;29;20606;-74
2024/03/07 01:12:43;;;;;;;24.00;17.42;;;7.80;99.90;;;;;;4914979;29;20194;-75
2024/03/07 01:15:10;;;;;;;26.00;18.08;;;7.80;99.90;;;;;;4916457;29;20261;-75
2024/03/07 01:17:35;;;;;;;22.67;18.05;;;7.80;99.90;;;;;;4899344;29;20189;-74
2024/03/07 01:20:02;;;;;;;24.10;17.40;;;7.70;99.90;;;;;;4914408;29;20261;-74
2024/03/07 01:22:28;;;;;;;23.08;16.77;;;7.70;99.90;;;;;;4896985;29;20197;-75
2024/03/07 01:24:54;;;;;;;23.43;16.40;;;7.70;99.90;;;;;;4918136;29;20201;-74
2024/03/07 01:27:20;;;;;;;25.88;17.42;;;7.70;99.90;;;;;;4927932;29;20570;-74
2024/03/07 01:29:46;;;;;;;20.40;17.00;;;7.70;99.90;;;;;;4915591;29;20193;-75
2024/03/07 01:32:12;;;;;;;23.23;16.83;;;7.70;99.90;;;;;;4914219;29;20193;-75
2024/03/07 01:34:37;;;;;;;21.70;16.40;;;7.60;99.90;;;;;;4917738;29;20249;-75
2024/03/07 01:37:03;;;;;;;21.57;14.87;;;7.60;99.90;;;;;;4935784;29;20235;-76
2024/03/07 01:39:29;;;;;;;22.30;16.07;;;7.60;99.90;;;;;;4926668;29;20213;-76
2024/03/07 01:41:54;;;;;;;22.70;16.70;;;7.60;99.90;;;;;;4898737;29;20965;-76
2024/03/07 01:44:20;;;;;;;24.20;16.00;;;7.60;99.90;;;;;;4916242;29;20561;-74
2024/03/07 01:46:50;;;;;;;21.77;16.67;;;7.50;99.90;;;;;;4915777;29;20274;-74
2024/03/07 01:49:16;;;;;;;25.50;16.67;;;7.50;99.90;;;;;;4915223;29;20590;-74
2024/03/07 01:51:43;;;;;;;27.00;18.93;;;7.50;99.90;;;;;;4917130;29;20333;-74
2024/03/07 01:54:09;;;;;;;27.88;17.20;;;7.50;99.90;;;;;;4929151;29;20225;-74
2024/03/07 01:56:37;;;;;;;25.15;16.42;;;7.50;99.90;;;;;;4915943;29;20201;-74
2024/03/07 01:59:05;;;;;;;27.38;19.02;;;7.50;99.90;;;;;;4913919;29;20202;-75
2024/03/07 02:01:31;;;;;;;22.23;16.65;;;7.50;99.90;;;;;;4916265;29;20249;-74
2024/03/07 02:03:57;;;;;;;21.77;16.75;;;7.40;99.90;;;;;;4915408;29;20629;-74
2024/03/07 02:06:24;;;;;;;23.37;15.50;;;7.40;99.90;;;;;;4914388;29;20185;-74
2024/03/07 02:08:49;;;;;;;21.90;15.95;;;7.40;99.90;;;;;;4913504;29;20268;-74
2024/03/07 02:11:15;;;;;;;23.97;16.07;;;7.40;99.90;;;;;;4916847;29;20265;-74
2024/03/07 02:13:41;;;;;;;24.30;15.47;;;7.40;99.90;;;;;;4898849;29;20706;-73
2024/03/07 02:16:07;;;;;;;21.23;15.43;;;7.40;99.90;;;;;;4914622;29;20169;-74
2024/03/07 02:18:35;;;;;;;20.65;15.05;;;7.30;99.90;;;;;;4915101;29;20201;-74
2024/03/07 02:21:05;;;;;;;24.38;16.30;;;7.30;99.90;;;;;;4914604;29;20559;-75
2024/03/07 02:23:32;;;;;;;22.98;15.05;;;7.30;99.90;;;;;;4926525;29;20205;-74
2024/03/07 02:25:58;;;;;;;21.80;14.20;;;7.30;99.90;;;;;;4901785;29;20181;-75
2024/03/07 02:28:24;;;;;;;20.40;15.25;;;7.20;99.90;;;;;;4917012;29;20178;-75
2024/03/07 02:30:50;;;;;;;20.60;15.37;;;7.20;99.90;;;;;;4918457;29;20185;-75
2024/03/07 02:33:15;;;;;;;20.10;15.30;;;7.20;99.90;;;;;;4915231;29;20189;-75
2024/03/07 02:35:41;;;;;;;22.83;14.50;;;7.20;99.90;;;;;;4915634;29;20532;-75
2024/03/07 02:38:08;;;;;;;24.20;16.70;;;7.10;99.90;;;;;;4922757;29;20236;-75
2024/03/07 02:40:34;;;;;;;23.65;14.68;;;7.10;99.90;;;;;;4913012;29;20692;-74
2024/03/07 02:43:00;;;;;;;23.33;16.90;;;7.10;99.90;;;;;;4917452;29;20246;-75
2024/03/07 02:45:26;;;;;;;22.75;14.82;;;7.10;99.90;;;;;;4918566;29;20275;-75
2024/03/07 02:47:53;;;;;;;21.63;14.00;;;7.10;99.90;;;;;;4912517;29;20319;-74
2024/03/07 02:50:21;;;;;;;21.38;14.60;;;7.10;99.90;;;;;;4914726;29;20585;-75
2024/03/07 02:52:48;;;;;;;27.35;14.45;;;7.00;99.90;;;;;;4913364;29;20186;-75
2024/03/07 02:55:14;;;;;;;21.00;16.38;;;7.00;99.90;;;;;;4914649;29;20189;-75
2024/03/07 02:57:40;;;;;;;23.83;16.63;;;7.00;99.90;;;;;;4915816;29;20649;-75
2024/03/07 03:00:19;;;;;;;23.02;15.35;;;7.00;99.90;;;;;;4918395;29;20236;-75
2024/03/07 03:02:46;;;;;;;18.45;12.80;;;7.00;99.90;;;;;;4930242;29;20259;-76
2024/03/07 03:05:14;;;;;;;20.92;15.60;;;6.90;99.90;;;;;;4924860;29;20182;-76
2024/03/07 03:07:40;;;;;;;17.48;14.38;;;6.90;99.90;;;;;;4916543;29;20208;-76
2024/03/07 03:10:09;;;;;;;20.80;14.05;;;6.90;99.90;;;;;;4917593;29;20694;-75
2024/03/07 03:12:37;;;;;;;20.33;14.85;;;6.90;99.90;;;;;;4919852;29;20190;-76
2024/03/07 03:15:07;;;;;;;20.02;14.95;;;6.90;99.90;;;;;;4916316;29;20245;-75
2024/03/07 03:17:33;;;;;;;22.60;15.50;;;6.80;99.90;;;;;;4932384;29;20185;-75
2024/03/07 03:19:59;;;;;;;24.27;16.35;;;6.80;99.90;;;;;;4938262;29;20209;-75
2024/03/07 03:22:26;;;;;;;25.10;15.07;;;6.80;99.90;;;;;;4915479;29;20173;-75
2024/03/07 03:24:55;;;;;;;25.38;15.88;;;6.80;99.90;;;;;;4913331;29;20194;-75
2024/03/07 03:27:22;;;;;;;22.80;16.05;;;6.70;99.90;;;;;;4914805;29;20174;-75
2024/03/07 03:29:50;;;;;;;23.80;15.88;;;6.70;99.90;;;;;;4913816;29;20272;-75
2024/03/07 03:32:16;;;;;;;26.10;17.70;;;6.80;99.90;;;;;;4912627;29;20591;-75
2024/03/07 03:34:42;;;;;;;23.83;15.73;;;6.80;99.90;;;;;;4913866;29;20205;-75
2024/03/07 03:37:09;;;;;;;21.80;14.57;;;6.80;99.90;;;;;;4914280;29;20194;-75
2024/03/07 03:39:35;;;;;;;19.10;13.63;;;6.80;99.90;;;;;;4913780;29;20202;-75
2024/03/07 03:42:00;;;;;;;22.38;15.73;;;6.80;99.90;;;;;;4896935;29;20209;-75
2024/03/07 03:44:26;;;;;;;23.27;16.03;;;6.80;99.90;;;;;;4913979;29;20624;-75
2024/03/07 03:46:52;;;;;;;18.50;14.37;;;6.80;99.90;;;;;;4914833;29;20376;-75
2024/03/07 03:49:17;;;;;;;19.87;14.27;;;6.80;99.90;;;;;;4927211;29;20276;-75
2024/03/07 03:51:43;;;;;;;19.23;14.13;;;6.80;99.90;;;;;;4915575;29;20904;-75
2024/03/07 03:54:08;;;;;;;23.00;14.23;;;6.80;99.90;;;;;;4900319;29;20646;-75
2024/03/07 03:56:34;;;;;;;18.43;13.47;;;6.80;99.90;;;;;;4916478;29;20182;-75
2024/03/07 03:59:00;;;;;;;21.43;14.50;;;6.90;99.90;;;;;;4900164;29;20204;-75
2024/03/07 04:01:25;;;;;;;19.80;14.73;;;6.90;99.90;;;;;;4916573;29;20182;-75
2024/03/07 04:03:51;;;;;;;22.50;15.30;;;6.90;99.90;;;;;;4916002;29;20221;-75
2024/03/07 04:06:18;;;;;;;19.13;14.57;;;6.90;99.90;;;;;;4916811;29;20182;-75
2024/03/07 04:08:44;;;;;;;21.25;14.93;;;6.80;99.90;;;;;;4916762;29;20193;-75
2024/03/07 04:11:10;;;;;;;19.77;13.73;;;6.80;99.90;;;;;;4901876;29;20659;-75
2024/03/07 04:13:35;;;;;;;20.57;13.47;;;6.80;99.90;;;;;;4918928;29;20563;-75
2024/03/07 04:16:01;;;;;;;17.33;13.13;;;6.80;99.90;;;;;;4919124;29;20178;-75
2024/03/07 04:18:27;;;;;;;17.27;12.67;;;6.80;99.90;;;;;;4918459;29;20182;-75
2024/03/07 04:20:54;;;;;;;17.33;13.00;;;6.70;99.90;;;;;;4916080;29;20641;-75
2024/03/07 04:23:20;;;;;;;21.10;14.18;;;6.70;99.90;;;;;;4915982;29;20234;-76
2024/03/07 04:25:46;;;;;;;19.55;14.77;;;6.70;99.90;;;;;;4924736;29;20264;-75
2024/03/07 04:28:11;;;;;;;19.23;13.63;;;6.70;99.90;;;;;;4930047;29;20276;-75
2024/03/07 04:30:37;;;;;;;19.77;14.60;;;6.70;99.90;;;;;;4917079;29;20200;-75
2024/03/07 04:33:04;;;;;;;19.93;14.80;;;6.70;99.90;;;;;;4900079;29;20280;-75
2024/03/07 04:35:31;;;;;;;19.80;15.60;;;6.70;99.90;;;;;;4921430;29;20186;-75
2024/03/07 04:37:57;;;;;;;21.13;15.73;;;6.60;99.90;;;;;;4933538;29;20187;-77
2024/03/07 04:40:23;;;;;;;22.27;15.15;;;6.60;99.90;;;;;;4925389;29;20229;-76
2024/03/07 04:42:49;;;;;;;19.20;15.00;;;6.60;99.90;;;;;;4954343;29;20204;-77
2024/03/07 04:45:15;;;;;;;19.53;14.57;;;6.60;99.90;;;;;;4919111;29;20170;-77
2024/03/07 04:47:42;;;;;;;18.38;14.70;;;6.70;99.90;;;;;;4908006;29;20641;-77
2024/03/07 04:50:10;;;;;;;19.35;14.90;;;6.70;99.90;;;;;;4914262;29;20181;-77
2024/03/07 04:52:39;;;;;;;21.48;14.90;;;6.60;99.90;;;;;;4915626;29;20185;-76
2024/03/07 04:55:12;;;;;;;19.90;14.13;;;6.60;99.90;;;;;;4909519;29;20194;-75
2024/03/07 04:57:39;;;;;;;18.05;12.00;;;6.60;99.90;;;;;;4916778;29;20185;-76
2024/03/07 05:00:14;;;;;;;19.13;13.65;;;6.70;99.90;;;;;;4916680;29;20201;-76
2024/03/07 05:02:41;;;;;;;19.60;14.45;;;6.60;99.90;;;;;;4937941;29;20209;-76
2024/03/07 05:05:06;;;;;;;20.45;14.27;;;6.60;99.90;;;;;;4918069;29;20289;-76
2024/03/07 05:07:32;;;;;;;20.33;14.27;;;6.60;99.90;;;;;;4900065;29;20262;-76
2024/03/07 05:09:58;;;;;;;20.37;14.30;;;6.60;99.90;;;;;;4917453;29;20240;-76
2024/03/07 05:12:23;;;;;;;19.50;14.90;;;6.70;99.90;;;;;;4919154;29;20559;-76
2024/03/07 05:14:49;;;;;;;20.57;14.67;;;6.70;99.90;;;;;;4928303;29;20201;-76
2024/03/07 05:17:15;;;;;;;24.80;15.57;;;6.80;99.90;;;;;;4903419;29;20174;-76
2024/03/07 05:19:40;;;;;;;19.77;16.27;;;6.80;99.90;;;;;;4920574;29;20300;-76
2024/03/07 05:22:06;;;;;;;22.87;16.33;;;6.90;99.90;;;;;;4913864;29;20182;-76
2024/03/07 05:24:33;;;;;;;23.43;15.70;;;7.00;99.90;;;;;;4897565;29;20284;-76
2024/03/07 05:26:59;;;;;;;19.80;14.82;;;7.00;99.90;;;;;;4917138;29;20182;-76
2024/03/07 05:29:25;;;;;;;23.00;15.13;;;7.10;99.90;;;;;;4924238;29;20268;-76
2024/03/07 05:31:51;;;;;;;21.88;15.32;;;7.20;99.90;;;;;;4932548;29;20654;-75
2024/03/07 05:34:20;;;;;;;21.40;15.60;;;7.30;99.90;;;;;;4899285;29;20675;-75
2024/03/07 05:36:46;;;;;;;18.63;14.27;;;7.30;99.90;;;;;;4914000;29;20265;-75
2024/03/07 05:39:13;;;;;;;21.70;15.57;;;7.40;99.90;;;;;;4907321;23;20214;-75
2024/03/07 05:41:42;;;;;;;19.73;14.57;;;7.50;99.90;;;;;;4896572;29;20296;-75
2024/03/07 05:44:08;;;;;;;17.90;13.00;;;7.60;99.90;;;;;;4895888;29;20207;-75
2024/03/07 05:46:42;;;;;;;20.90;15.43;;;7.60;99.90;;;;;;4893193;29;20652;-75
2024/03/07 05:49:10;;;;;;;16.85;13.30;;;7.70;99.90;;;;;;4888620;29;20210;-75
2024/03/07 05:51:36;;;;;;;18.77;14.60;;;7.70;99.90;;;;;;4888585;29;20183;-75
2024/03/07 05:54:06;;;;;;;19.33;14.10;;;7.80;99.90;;;;;;4888806;29;20848;-76
2024/03/07 05:56:35;;;;;;;23.83;16.10;;;7.80;99.90;;;;;;4900532;29;20594;-75
2024/03/07 05:59:04;;;;;;;20.58;14.90;;;7.90;99.90;;;;;;4895752;29;20330;-75
2024/03/07 06:01:32;;;;;;;21.83;16.10;;;7.90;99.90;;;;;;4909193;29;20180;-75
2024/03/07 06:03:59;;;;;;;18.25;14.77;;;7.90;99.90;;;;;;4910386;29;20185;-75
2024/03/07 06:06:25;;;;;;;18.67;14.13;;;7.90;99.90;;;;;;4895698;29;20182;-75
2024/03/07 06:08:51;;;;;;;22.10;15.80;;;7.90;99.90;;;;;;4905417;29;20194;-75
2024/03/07 06:11:21;;;;;;;21.30;14.83;;;7.90;99.90;;;;;;4872478;29;20963;-75
2024/03/07 06:13:47;;;;;;;19.63;14.50;;;8.00;99.90;;;;;;4902903;29;20235;-75
2024/03/07 06:16:14;;;;;;;22.60;14.43;;;8.00;99.90;;;;;;4883675;29;20183;-76
2024/03/07 06:18:41;;;;;;;21.08;15.30;;;8.00;99.90;;;;;;4891617;29;20222;-76
2024/03/07 06:21:08;;;;;;;22.90;16.60;;;8.00;99.90;;;;;;4895586;29;20687;-76
2024/03/07 06:23:34;;;;;;;16.42;13.32;;;8.00;99.90;;;;;;4894703;29;20210;-76
2024/03/07 06:26:00;;;;;;;18.02;13.35;;;8.00;99.90;;;;;;4892058;29;20322;-75
2024/03/07 06:28:28;;;;;;;16.67;12.82;;;8.00;99.90;;;;;;4894899;29;20614;-76
2024/03/07 06:30:54;;;;;;;21.10;15.75;;;8.00;99.90;;;;;;4895299;29;20190;-75
2024/03/07 06:33:21;;;;;;;20.83;14.80;;;8.00;99.90;;;;;;4905109;29;20182;-75
2024/03/07 06:35:47;;;;;;;30.98;18.35;;;8.00;99.90;;;;;;4895376;29;20183;-75
2024/03/07 06:38:13;;;;;;;20.05;15.82;;;8.00;99.90;;;;;;4874834;29;20187;-75
2024/03/07 06:40:41;;;;;;;23.27;16.95;;;7.90;99.90;;;;;;4890465;29;20202;-74
2024/03/07 06:43:10;;;;;;;19.48;15.75;;;7.90;99.90;;;;;;4892263;29;20171;-75
2024/03/07 06:45:39;;;;;;;26.90;19.38;;;7.90;99.90;;;;;;4882288;29;20188;-74
2024/03/07 06:48:08;;;;;;;26.70;17.88;;;7.90;99.90;;;;;;4870799;29;20265;-74
2024/03/07 06:50:37;;;;;;;21.33;15.32;;;7.90;99.90;;;;;;4903490;29;20179;-75
2024/03/07 06:53:04;;;;;;;23.13;18.15;;;7.90;99.90;;;;;;4894220;29;20522;-74
2024/03/07 06:55:29;;;;;;;22.75;17.55;;;7.80;99.90;;;;;;4888749;29;20187;-75
2024/03/07 06:57:55;;;;;;;23.40;16.07;;;7.80;99.90;;;;;;4890588;29;20193;-75
2024/03/07 07:00:21;;;;;;;23.33;17.20;;;7.80;99.90;;;;;;4894891;29;21038;-75
2024/03/07 07:02:48;;;;;;;21.27;16.87;;;7.80;99.90;;;;;;4879969;29;20191;-74
2024/03/07 07:05:18;;;;;;;20.05;16.38;;;7.80;99.90;;;;;;4895535;29;21013;-75
2024/03/07 07:07:47;;;;;;;23.13;16.58;;;7.80;99.90;;;;;;4895216;29;20178;-74
2024/03/07 07:10:17;;;;;;;21.73;16.15;;;7.80;99.90;;;;;;4896185;29;20244;-74
2024/03/07 07:12:47;;;;;;;16.85;13.68;;;7.90;99.90;;;;;;4896182;29;20194;-74
2024/03/07 07:15:18;;;;;;;18.38;15.30;;;7.90;99.90;;;;;;4895223;29;20559;-74
2024/03/07 07:17:50;;;;;;;24.60;18.55;;;7.90;99.90;;;;;;4909596;29;20183;-73
2024/03/07 07:20:18;;;;;;;23.55;17.25;;;7.90;99.90;;;;;;4894968;29;20221;-74
2024/03/07 07:22:46;;;;;;;23.27;17.00;;;7.90;99.90;;;;;;4862972;29;20174;-74
2024/03/07 07:25:15;;;;;;;21.00;17.30;;;7.90;99.90;;;;;;4893955;29;20186;-74
2024/03/07 07:27:51;;;;;;;20.98;17.20;;;7.90;99.90;;;;;;4898507;29;20269;-74
2024/03/07 07:30:19;;;;;;;23.17;19.00;;;7.90;99.90;;;;;;4897399;29;20198;-74
2024/03/07 07:32:46;;;;;;;21.33;17.63;;;8.00;99.90;;;;;;4898768;29;20185;-73
2024/03/07 07:35:12;;;;;;;19.70;15.88;;;8.00;99.90;;;;;;4898990;29;20189;-74
2024/03/07 07:37:39;;;;;;;22.30;17.75;;;8.10;99.90;;;;;;4898732;29;20544;-74
2024/03/07 07:40:14;;;;;;;26.23;17.90;;;8.10;99.90;;;;;;4897184;29;20648;-74
2024/03/07 07:42:43;;;;;;;22.92;15.73;;;8.20;99.90;;;;;;4897640;29;20174;-74
2024/03/07 07:45:13;;;;;;;23.88;16.63;;;8.20;99.90;;;;;;4889427;29;20197;-74
2024/03/07 07:47:41;;;;;;;18.45;15.55;;;8.30;99.90;;;;;;4894974;29;20211;-74
2024/03/07 07:50:17;;;;;;;24.08;19.05;;;8.40;99.90;;;;;;4881577;29;20677;-74
2024/03/07 07:52:46;;;;;;;26.67;19.85;;;8.40;99.90;;;;;;4913341;29;20185;-75
2024/03/07 07:55:14;;;;;;;23.52;17.70;;;8.50;99.90;;;;;;4890936;29;20187;-75
2024/03/07 07:57:44;;;;;;;25.35;19.17;;;8.50;99.90;;;;;;4912904;29;20341;-74
2024/03/07 08:00:23;;;;;;;19.85;16.20;;;8.60;99.90;;;;;;4896226;29;20712;-74
2024/03/07 08:02:55;;;;;;;18.85;15.40;;;8.60;99.90;;;;;;4909508;29;20170;-74
2024/03/07 08:05:27;;;;;;;19.33;14.77;;;8.70;99.90;;;;;;4898116;29;20727;-74
2024/03/07 08:07:54;;;;;;;18.98;15.30;;;8.90;99.90;;;;;;4880671;29;20190;-75
2024/03/07 08:10:23;;;;;;;19.42;14.80;;;9.20;99.90;;;;;;4893992;29;20247;-75
2024/03/07 08:12:49;;;;;;;18.63;15.00;;;9.70;99.90;;;;;;4901504;29;20182;-74
2024/03/07 08:15:15;;;;;;;18.42;16.30;;;10.50;99.90;;;;;;4894569;29;20171;-74
2024/03/07 08:17:46;;;;;;;17.02;14.45;;;11.30;99.90;;;;;;4898323;29;20189;-75
2024/03/07 08:20:20;;;;;;;18.80;16.90;;;12.10;99.90;;;;;;4897111;29;20210;-75
2024/03/07 08:22:46;;;;;;;17.13;14.60;;;12.70;99.90;;;;;;4912696;29;20601;-74
2024/03/07 08:25:17;;;;;;;15.77;14.13;;;13.40;99.90;;;;;;4893462;29;20591;-74
2024/03/07 08:27:45;;;;;;;15.20;13.60;;;14.10;99.90;;;;;;4913798;29;20841;-75
2024/03/07 08:30:14;;;;;;;14.23;12.73;;;15.00;99.90;;;;;;4896966;29;20681;-75
2024/03/07 08:32:42;;;;;;;15.20;13.60;;;15.80;99.90;;;;;;4892206;29;20598;-75
2024/03/07 08:35:11;;;;;;;13.97;11.70;;;16.60;99.90;;;;;;4887635;29;20667;-75
2024/03/07 08:37:39;;;;;;;14.40;13.03;;;17.20;99.90;;;;;;4906486;29;20606;-76
2024/03/07 08:40:09;;;;;;;14.73;13.07;;;17.70;99.90;;;;;;4894256;29;20650;-75
2024/03/07 08:42:36;;;;;;;12.70;11.50;;;18.10;99.90;;;;;;4906817;29;21526;-75
2024/03/07 08:45:06;;;;;;;13.80;12.03;;;18.40;99.90;;;;;;4910651;29;20677;-75
2024/03/07 08:47:35;;;;;;;12.37;11.17;;;18.80;99.90;;;;;;4883807;29;21008;-75
2024/03/07 08:50:06;;;;;;;13.20;11.80;;;19.20;99.90;;;;;;4891149;29;21385;-76
2024/03/07 08:52:32;;;;;;;14.47;12.97;;;19.60;99.90;;;;;;4911613;29;21179;-75
2024/03/07 08:54:57;;;;;;;11.80;10.47;;;19.70;99.90;;;;;;4897733;29;20591;-75
2024/03/07 08:57:23;;;;;;;12.93;11.30;;;20.10;99.90;;;;;;4891903;29;20598;-74
2024/03/07 08:59:49;;;;;;;14.70;12.40;;;20.30;99.90;;;;;;4896825;29;20221;-74
2024/03/07 09:02:15;;;;;;;14.13;9.93;;;20.00;92.50;;;;;;4895282;29;20178;-74
2024/03/07 09:04:41;;;;;;;11.67;10.50;;;20.00;93.80;;;;;;4889800;29;20607;-74
2024/03/07 09:07:07;;;;;;;15.40;10.40;;;20.10;88.80;;;;;;4888242;29;20575;-74
2024/03/07 09:09:34;;;;;;;11.73;10.00;;;20.00;91.40;;;;;;4889096;29;20200;-74
2024/03/07 09:12:01;;;;;;;12.83;11.00;;;20.20;92.60;;;;;;4897056;29;20628;-74
2024/03/07 09:14:30;;;;;;;12.00;10.73;;;20.40;87.40;;;;;;4897447;29;20594;-74
2024/03/07 09:16:56;;;;;;;10.70;9.60;;;20.40;77.50;;;;;;4887612;29;20595;-74
2024/03/07 09:19:27;;;;;;;11.53;10.33;;;20.40;88.10;;;;;;4892340;29;20662;-74
2024/03/07 09:21:53;;;;;;;13.40;11.03;;;20.50;87.30;;;;;;4893877;29;20595;-74
2024/03/07 09:24:22;;;;;;;12.23;11.03;;;20.50;78.30;;;;;;4888422;29;20962;-74
2024/03/07 09:26:51;;;;;;;13.20;11.80;;;20.50;80.30;;;;;;4893224;29;20583;-74
2024/03/07 09:29:18;;;;;;;13.90;11.00;;;20.30;60.40;;;;;;4879301;29;20630;-74
2024/03/07 09:31:46;;;;;;;13.57;10.73;;;19.60;66.60;;;;;;4905145;29;20599;-74
2024/03/07 09:34:12;;;;;;;12.57;10.83;;;19.10;67.80;;;;;;4885047;29;20604;-74
2024/03/07 09:36:41;;;;;;;11.97;10.77;;;18.50;67.80;;;;;;4891608;29;20998;-73
2024/03/07 09:39:08;;;;;;;13.20;11.10;;;17.80;65.90;;;;;;4891961;29;20939;-73
2024/03/07 09:41:34;;;;;;;14.53;10.97;;;17.10;66.90;;;;;;4893387;29;21427;-72
2024/03/07 09:44:01;;;;;;;11.40;9.13;;;16.50;67.20;;;;;;4896774;29;20685;-73
2024/03/07 09:46:27;;;;;;;14.10;11.00;;;15.90;66.50;;;;;;4893470;29;20218;-73
2024/03/07 09:48:54;;;;;;;13.63;11.83;;;15.30;68.40;;;;;;4881545;29;21230;-73
2024/03/07 09:51:23;;;;;;;17.87;12.50;;;15.00;71.20;;;;;;4879958;29;20909;-73
2024/03/07 09:53:51;;;;;;;15.17;12.67;;;15.10;73.80;;;;;;4889697;29;20695;-73
2024/03/07 09:56:21;;;;;;;15.00;11.93;;;15.10;74.90;;;;;;4863782;29;20686;-73
2024/03/07 09:58:51;;;;;;;13.30;11.90;;;15.00;74.10;;;;;;4895790;29;20674;-75
2024/03/07 10:01:21;;;;;;;12.80;11.17;;;14.90;75.40;;;;;;4896163;29;20590;-75
2024/03/07 10:03:50;;;;;;;14.43;11.13;;;14.90;76.80;;;;;;4908683;29;20599;-74
2024/03/07 10:06:16;;;;;;;16.27;12.80;;;14.90;76.50;;;;;;4876792;29;20596;-73
2024/03/07 10:08:43;;;;;;;16.70;11.90;;;14.70;74.70;;;;;;4885474;29;20720;-74
2024/03/07 10:11:09;;;;;;;15.37;13.07;;;14.60;72.10;;;;;;4880652;29;20614;-74
2024/03/07 10:13:35;;;;;;;16.10;12.77;;;14.30;75.60;;;;;;4881097;29;20671;-73
2024/03/07 10:16:04;;;;;;;16.17;12.57;;;14.10;75.60;;;;;;4904214;29;20618;-74
2024/03/07 10:18:31;;;;;;;16.00;11.57;;;14.00;76.90;;;;;;4913516;29;20619;-73
2024/03/07 10:20:57;;;;;;;14.63;12.07;;;13.80;77.40;;;;;;4885320;29;21243;-73
2024/03/07 10:23:23;;;;;;;18.47;13.57;;;13.70;78.90;;;;;;4895799;29;20606;-74
2024/03/07 10:25:55;;;;;;;18.03;13.00;;;13.50;79.20;;;;;;4894391;29;20221;-73
2024/03/07 10:28:20;;;;;;;14.40;11.80;;;13.40;79.50;;;;;;4906146;29;20590;-74
2024/03/07 10:30:50;;;;;;;13.23;11.17;;;13.20;80.20;;;;;;4887537;29;20590;-74
2024/03/07 10:33:17;;;;;;;14.20;12.67;;;13.40;84.40;;;;;;4894580;29;20598;-74
2024/03/07 10:35:46;;;;;;;14.10;11.20;;;13.90;86.10;;;;;;4878832;29;20609;-74
2024/03/07 10:38:12;;;;;;;14.90;12.73;;;14.30;90.10;;;;;;4902119;29;20590;-74
2024/03/07 10:40:40;;;;;;;14.17;11.17;;;14.80;90.60;;;;;;4887503;29;21295;-74
2024/03/07 10:43:11;;;;;;;13.83;12.23;;;15.10;90.60;;;;;;4887663;29;20190;-74
2024/03/07 10:45:48;;;;;;;13.63;11.60;;;15.50;86.70;;;;;;4905628;29;20586;-74
2024/03/07 10:48:17;;;;;;;13.90;11.07;;;15.90;81.60;;;;;;4893387;29;20693;-74
2024/03/07 10:50:47;;;;;;;18.03;12.10;;;16.20;89.30;;;;;;4888836;29;20682;-74
2024/03/07 10:53:34;;;;;;;11.67;9.93;;;16.60;88.30;;;;;;4895037;29;20643;-74
2024/03/07 10:56:33;;;;;;;13.93;12.50;;;17.10;90.80;;;;;;4885724;29;21153;-74
2024/03/07 10:59:16;;;;;;;11.33;9.80;;;17.30;79.40;;;;;;4894650;29;20614;-74
2024/03/07 11:01:54;;;;;;;10.83;9.70;;;17.40;83.70;;;;;;4889243;29;21162;-74
2024/03/07 11:04:22;;;;;;;14.90;13.30;;;17.60;83.40;;;;;;4886546;29;20578;-74
2024/03/07 11:06:49;;;;;;;13.20;10.60;;;17.50;75.20;;;;;;4903347;29;20616;-74
2024/03/07 11:09:22;;;;;;;15.03;12.27;;;17.50;78.90;;;;;;4877332;29;20622;-74
2024/03/07 11:11:49;;;;;;;12.13;9.70;;;17.70;77.70;;;;;;4893772;29;20591;-74
2024/03/07 11:14:16;;;;;;;9.43;8.53;;;18.00;81.60;;;;;;4895379;29;20586;-74
2024/03/07 11:16:43;;;;;;;10.40;9.20;;;18.20;82.30;;;;;;4881427;29;20591;-74
2024/03/07 11:19:26;;;;;;;11.67;9.73;;;18.50;79.10;;;;;;4884084;29;20734;-74
2024/03/07 11:21:52;;;;;;;12.40;11.00;;;18.60;78.10;;;;;;4894735;29;20602;-75
2024/03/07 11:24:25;;;;;;;12.00;10.73;;;18.50;73.90;;;;;;4902649;29;20616;-75
2024/03/07 11:26:55;;;;;;;14.77;11.47;;;18.20;66.00;;;;;;4888577;29;20587;-75
2024/03/07 11:29:43;;;;;;;14.80;12.80;;;17.70;68.70;;;;;;4886726;29;20626;-75
2024/03/07 11:32:15;;;;;;;15.23;10.80;;;17.10;65.90;;;;;;4877529;29;21173;-74
2024/03/07 11:34:46;;;;;;;14.37;10.40;;;16.50;65.60;;;;;;4895392;29;20622;-74
2024/03/07 11:37:22;;;;;;;13.33;11.70;;;16.10;67.60;;;;;;4909457;29;20602;-74
2024/03/07 11:39:52;;;;;;;13.53;12.00;;;15.80;68.20;;;;;;4887930;29;20647;-74
2024/03/07 11:42:33;;;;;;;11.37;9.40;;;15.50;70.30;;;;;;4893123;29;20991;-74
2024/03/07 11:45:03;;;;;;;13.70;11.20;;;15.30;70.80;;;;;;4895187;29;20582;-75
2024/03/07 11:47:37;;;;;;;12.77;9.70;;;15.10;71.70;;;;;;4909891;29;20647;-75
2024/03/07 11:50:08;;;;;;;13.93;11.60;;;14.90;73.20;;;;;;4877118;29;20730;-75
2024/03/07 11:52:36;;;;;;;15.77;13.03;;;14.80;73.80;;;;;;4886353;29;21075;-74
2024/03/07 11:55:05;;;;;;;12.23;10.93;;;14.60;74.00;;;;;;4891883;29;20591;-75
2024/03/07 11:57:34;;;;;;;16.63;11.37;;;14.60;75.00;;;;;;4881226;29;20587;-74
2024/03/07 12:00:08;;;;;;;13.67;10.23;;;14.60;76.10;;;;;;4886903;29;20650;-74
2024/03/07 12:02:38;;;;;;;11.33;9.90;;;14.60;77.70;;;;;;4881035;29;20584;-74
2024/03/07 12:05:05;;;;;;;13.90;11.53;;;14.70;77.70;;;;;;4887244;29;20584;-74
2024/03/07 12:07:33;;;;;;;16.20;11.20;;;14.90;80.40;;;;;;4909538;29;20579;-75
2024/03/07 12:10:03;;;;;;;16.33;11.50;;;15.20;82.40;;;;;;4896558;29;20642;-75
2024/03/07 12:12:29;;;;;;;13.43;11.37;;;15.50;83.30;;;;;;4892148;29;20629;-75
2024/03/07 12:14:56;;;;;;;12.60;11.30;;;15.60;81.00;;;;;;4901065;29;20591;-74
2024/03/07 12:17:22;;;;;;;13.80;9.77;;;15.70;80.40;;;;;;4898078;29;20729;-75
2024/03/07 12:19:52;;;;;;;14.20;11.30;;;15.90;81.80;;;;;;4894399;29;20646;-74
2024/03/07 12:22:24;;;;;;;12.27;8.80;;;15.90;79.10;;;;;;4895376;29;20598;-74
2024/03/07 12:25:08;;;;;;;9.73;8.30;;;15.80;78.40;;;;;;4890695;29;20636;-74
2024/03/07 12:27:34;;;;;;;9.80;8.60;;;15.70;77.60;;;;;;4886040;29;20602;-74
2024/03/07 12:30:07;;;;;;;11.80;10.20;;;15.40;76.70;;;;;;4889216;29;20622;-74
2024/03/07 12:32:33;;;;;;;11.73;9.30;;;15.20;75.90;;;;;;4889850;29;20186;-74
2024/03/07 12:34:59;;;;;;;11.07;9.00;;;14.80;75.30;;;;;;4895006;29;21187;-75
2024/03/07 12:37:29;;;;;;;11.93;8.57;;;14.50;76.00;;;;;;4889889;29;20225;-75